sensor_id;sensor_type;location;lat;lon;timestamp;P1;durP1;ratioP1;P2;durP2;ratioP2
21862;SDS011;11096;51.338;12.524;2022-09-29T00:00:31;4.93;;;3.33;;
21862;SDS011;11096;51.338;12.524;2022-09-29T00:02:57;4.75;;;2.97;;
21862;SDS011;11096;51.338;12.524;2022-09-29T00:05:22;4.95;;;2.85;;
21862;SDS011;11096;51.338;12.524;2022-09-29T00:07:48;5.85;;;3.15;;
21862;SDS011;11096;51.338;12.524;2022-09-29T00:10:13;5.95;;;3.75;;
21862;SDS011;11096;51.338;12.524;2022-09-29T00:12:39;5.28;;;2.92;;
21862;SDS011;11096;51.338;12.524;2022-09-29T00:15:05;6.70;;;3.97;;
21862;SDS011;11096;51.338;12.524;2022-09-29T00:17:30;7.32;;;3.55;;
21862;SDS011;11096;51.338;12.524;2022-09-29T00:19:56;6.35;;;3.63;;
21862;SDS011;11096;51.338;12.524;2022-09-29T00:22:21;6.95;;;3.65;;
21862;SDS011;11096;51.338;12.524;2022-09-29T00:24:47;6.18;;;3.58;;
21862;SDS011;11096;51.338;12.524;2022-09-29T00:27:16;4.75;;;3.35;;
21862;SDS011;11096;51.338;12.524;2022-09-29T00:29:42;6.47;;;3.90;;
21862;SDS011;11096;51.338;12.524;2022-09-29T00:32:08;5.72;;;2.90;;
21862;SDS011;11096;51.338;12.524;2022-09-29T00:34:33;8.43;;;3.80;;
21862;SDS011;11096;51.338;12.524;2022-09-29T00:36:58;6.13;;;3.30;;
21862;SDS011;11096;51.338;12.524;2022-09-29T00:39:24;8.63;;;3.42;;
21862;SDS011;11096;51.338;12.524;2022-09-29T00:41:49;6.18;;;3.33;;
21862;SDS011;11096;51.338;12.524;2022-09-29T00:46:44;6.45;;;3.53;;
21862;SDS011;11096;51.338;12.524;2022-09-29T00:49:23;6.15;;;3.42;;
21862;SDS011;11096;51.338;12.524;2022-09-29T00:54:31;4.63;;;3.03;;
21862;SDS011;11096;51.338;12.524;2022-09-29T00:57:02;5.20;;;3.33;;
21862;SDS011;11096;51.338;12.524;2022-09-29T00:59:35;5.90;;;3.10;;
21862;SDS011;11096;51.338;12.524;2022-09-29T01:02:31;5.80;;;3.35;;
21862;SDS011;11096;51.338;12.524;2022-09-29T01:04:59;6.93;;;3.50;;
21862;SDS011;11096;51.338;12.524;2022-09-29T01:07:29;5.72;;;3.42;;
21862;SDS011;11096;51.338;12.524;2022-09-29T01:09:55;8.63;;;3.90;;
21862;SDS011;11096;51.338;12.524;2022-09-29T01:12:21;6.20;;;3.40;;
21862;SDS011;11096;51.338;12.524;2022-09-29T01:14:47;6.28;;;3.67;;
21862;SDS011;11096;51.338;12.524;2022-09-29T01:17:13;4.60;;;3.08;;
21862;SDS011;11096;51.338;12.524;2022-09-29T01:22:30;5.78;;;3.28;;
21862;SDS011;11096;51.338;12.524;2022-09-29T01:25:32;6.43;;;3.40;;
21862;SDS011;11096;51.338;12.524;2022-09-29T01:31:10;6.53;;;3.78;;
21862;SDS011;11096;51.338;12.524;2022-09-29T01:39:30;6.72;;;3.83;;
21862;SDS011;11096;51.338;12.524;2022-09-29T01:42:16;8.60;;;3.72;;
21862;SDS011;11096;51.338;12.524;2022-09-29T01:47:22;6.55;;;3.83;;
21862;SDS011;11096;51.338;12.524;2022-09-29T01:49:56;6.55;;;3.78;;
21862;SDS011;11096;51.338;12.524;2022-09-29T01:52:26;7.78;;;4.28;;
21862;SDS011;11096;51.338;12.524;2022-09-29T02:00:04;6.78;;;3.63;;
21862;SDS011;11096;51.338;12.524;2022-09-29T02:02:36;6.80;;;3.72;;
21862;SDS011;11096;51.338;12.524;2022-09-29T02:05:18;5.55;;;3.58;;
21862;SDS011;11096;51.338;12.524;2022-09-29T02:07:48;6.75;;;4.13;;
21862;SDS011;11096;51.338;12.524;2022-09-29T02:10:16;6.32;;;4.20;;
21862;SDS011;11096;51.338;12.524;2022-09-29T02:12:47;7.97;;;4.18;;
21862;SDS011;11096;51.338;12.524;2022-09-29T02:15:18;7.00;;;4.00;;
21862;SDS011;11096;51.338;12.524;2022-09-29T02:17:50;8.13;;;3.70;;
21862;SDS011;11096;51.338;12.524;2022-09-29T02:20:17;5.80;;;3.17;;
21862;SDS011;11096;51.338;12.524;2022-09-29T02:22:43;6.07;;;3.45;;
21862;SDS011;11096;51.338;12.524;2022-09-29T02:25:09;8.32;;;4.07;;
21862;SDS011;11096;51.338;12.524;2022-09-29T02:27:37;6.63;;;3.67;;
21862;SDS011;11096;51.338;12.524;2022-09-29T02:30:03;7.15;;;3.70;;
21862;SDS011;11096;51.338;12.524;2022-09-29T02:32:30;5.97;;;3.20;;
21862;SDS011;11096;51.338;12.524;2022-09-29T02:34:57;5.00;;;2.85;;
21862;SDS011;11096;51.338;12.524;2022-09-29T02:42:53;5.05;;;2.90;;
21862;SDS011;11096;51.338;12.524;2022-09-29T02:56:32;6.00;;;3.40;;
21862;SDS011;11096;51.338;12.524;2022-09-29T02:59:34;5.97;;;3.25;;
21862;SDS011;11096;51.338;12.524;2022-09-29T03:02:06;9.18;;;3.45;;
21862;SDS011;11096;51.338;12.524;2022-09-29T03:04:31;5.55;;;2.90;;
21862;SDS011;11096;51.338;12.524;2022-09-29T03:06:57;5.60;;;2.78;;
21862;SDS011;11096;51.338;12.524;2022-09-29T03:09:22;5.78;;;3.17;;
21862;SDS011;11096;51.338;12.524;2022-09-29T03:11:48;6.47;;;3.33;;
21862;SDS011;11096;51.338;12.524;2022-09-29T03:14:13;4.65;;;2.92;;
21862;SDS011;11096;51.338;12.524;2022-09-29T03:16:38;5.97;;;2.90;;
21862;SDS011;11096;51.338;12.524;2022-09-29T03:19:04;5.70;;;2.97;;
21862;SDS011;11096;51.338;12.524;2022-09-29T03:21:30;6.97;;;3.10;;
21862;SDS011;11096;51.338;12.524;2022-09-29T03:23:56;5.40;;;2.95;;
21862;SDS011;11096;51.338;12.524;2022-09-29T03:26:21;8.02;;;2.92;;
21862;SDS011;11096;51.338;12.524;2022-09-29T03:28:48;5.28;;;2.97;;
21862;SDS011;11096;51.338;12.524;2022-09-29T03:31:14;5.65;;;2.88;;
21862;SDS011;11096;51.338;12.524;2022-09-29T03:33:39;5.35;;;3.30;;
21862;SDS011;11096;51.338;12.524;2022-09-29T03:36:05;6.40;;;3.03;;
21862;SDS011;11096;51.338;12.524;2022-09-29T03:38:31;4.72;;;2.85;;
21862;SDS011;11096;51.338;12.524;2022-09-29T03:40:57;6.45;;;2.92;;
21862;SDS011;11096;51.338;12.524;2022-09-29T03:43:22;4.35;;;2.78;;
21862;SDS011;11096;51.338;12.524;2022-09-29T03:45:48;4.53;;;2.47;;
21862;SDS011;11096;51.338;12.524;2022-09-29T03:48:15;6.78;;;2.95;;
21862;SDS011;11096;51.338;12.524;2022-09-29T03:50:41;5.55;;;3.25;;
21862;SDS011;11096;51.338;12.524;2022-09-29T03:53:09;4.63;;;2.90;;
21862;SDS011;11096;51.338;12.524;2022-09-29T03:55:34;5.72;;;3.42;;
21862;SDS011;11096;51.338;12.524;2022-09-29T03:57:59;6.20;;;3.35;;
21862;SDS011;11096;51.338;12.524;2022-09-29T04:00:25;6.82;;;3.20;;
21862;SDS011;11096;51.338;12.524;2022-09-29T04:02:52;7.88;;;3.35;;
21862;SDS011;11096;51.338;12.524;2022-09-29T04:05:18;7.00;;;2.63;;
21862;SDS011;11096;51.338;12.524;2022-09-29T04:07:43;7.55;;;2.97;;
21862;SDS011;11096;51.338;12.524;2022-09-29T04:10:09;4.18;;;2.55;;
21862;SDS011;11096;51.338;12.524;2022-09-29T04:12:34;6.78;;;2.92;;
21862;SDS011;11096;51.338;12.524;2022-09-29T04:14:59;3.45;;;2.28;;
21862;SDS011;11096;51.338;12.524;2022-09-29T04:17:25;3.88;;;2.20;;
21862;SDS011;11096;51.338;12.524;2022-09-29T04:19:50;5.82;;;3.20;;
21862;SDS011;11096;51.338;12.524;2022-09-29T04:22:16;5.32;;;2.75;;
21862;SDS011;11096;51.338;12.524;2022-09-29T04:24:45;6.38;;;3.33;;
21862;SDS011;11096;51.338;12.524;2022-09-29T04:27:12;6.03;;;3.47;;
21862;SDS011;11096;51.338;12.524;2022-09-29T04:29:38;5.20;;;2.97;;
21862;SDS011;11096;51.338;12.524;2022-09-29T04:32:04;7.47;;;3.30;;
21862;SDS011;11096;51.338;12.524;2022-09-29T04:34:30;6.32;;;3.45;;
21862;SDS011;11096;51.338;12.524;2022-09-29T04:36:56;5.70;;;3.08;;
21862;SDS011;11096;51.338;12.524;2022-09-29T04:39:21;4.68;;;2.85;;
21862;SDS011;11096;51.338;12.524;2022-09-29T04:41:46;4.93;;;2.83;;
21862;SDS011;11096;51.338;12.524;2022-09-29T04:44:12;4.70;;;3.38;;
21862;SDS011;11096;51.338;12.524;2022-09-29T04:46:37;6.38;;;2.97;;
21862;SDS011;11096;51.338;12.524;2022-09-29T04:49:03;6.18;;;3.47;;
21862;SDS011;11096;51.338;12.524;2022-09-29T04:51:28;5.03;;;2.83;;
21862;SDS011;11096;51.338;12.524;2022-09-29T04:53:53;4.15;;;2.85;;
21862;SDS011;11096;51.338;12.524;2022-09-29T04:56:19;6.57;;;3.35;;
21862;SDS011;11096;51.338;12.524;2022-09-29T04:58:44;4.13;;;2.90;;
21862;SDS011;11096;51.338;12.524;2022-09-29T05:01:10;7.00;;;3.28;;
21862;SDS011;11096;51.338;12.524;2022-09-29T05:03:39;6.53;;;3.28;;
21862;SDS011;11096;51.338;12.524;2022-09-29T05:06:05;5.00;;;2.90;;
21862;SDS011;11096;51.338;12.524;2022-09-29T05:08:31;5.07;;;2.85;;
21862;SDS011;11096;51.338;12.524;2022-09-29T05:10:56;5.05;;;3.13;;
21862;SDS011;11096;51.338;12.524;2022-09-29T05:13:22;5.13;;;2.90;;
21862;SDS011;11096;51.338;12.524;2022-09-29T05:15:48;4.72;;;2.88;;
21862;SDS011;11096;51.338;12.524;2022-09-29T05:18:14;4.55;;;2.80;;
21862;SDS011;11096;51.338;12.524;2022-09-29T05:20:39;5.70;;;3.28;;
21862;SDS011;11096;51.338;12.524;2022-09-29T05:23:04;6.57;;;3.10;;
21862;SDS011;11096;51.338;12.524;2022-09-29T05:25:34;4.72;;;2.85;;
21862;SDS011;11096;51.338;12.524;2022-09-29T05:28:00;5.75;;;3.38;;
21862;SDS011;11096;51.338;12.524;2022-09-29T05:30:25;5.93;;;3.58;;
21862;SDS011;11096;51.338;12.524;2022-09-29T05:32:51;6.85;;;3.53;;
21862;SDS011;11096;51.338;12.524;2022-09-29T05:35:16;5.30;;;3.08;;
21862;SDS011;11096;51.338;12.524;2022-09-29T05:37:41;6.75;;;3.53;;
21862;SDS011;11096;51.338;12.524;2022-09-29T05:40:07;4.05;;;2.25;;
21862;SDS011;11096;51.338;12.524;2022-09-29T05:42:32;3.85;;;2.58;;
21862;SDS011;11096;51.338;12.524;2022-09-29T05:44:58;5.07;;;2.58;;
21862;SDS011;11096;51.338;12.524;2022-09-29T05:47:24;4.93;;;2.65;;
21862;SDS011;11096;51.338;12.524;2022-09-29T05:49:49;7.53;;;2.83;;
21862;SDS011;11096;51.338;12.524;2022-09-29T05:52:14;4.30;;;2.70;;
21862;SDS011;11096;51.338;12.524;2022-09-29T05:54:40;6.72;;;3.30;;
21862;SDS011;11096;51.338;12.524;2022-09-29T05:57:05;9.93;;;3.35;;
21862;SDS011;11096;51.338;12.524;2022-09-29T05:59:30;5.72;;;3.60;;
21862;SDS011;11096;51.338;12.524;2022-09-29T06:01:56;6.53;;;3.83;;
21862;SDS011;11096;51.338;12.524;2022-09-29T06:04:21;5.15;;;3.25;;
21862;SDS011;11096;51.338;12.524;2022-09-29T06:06:46;6.30;;;3.85;;
21862;SDS011;11096;51.338;12.524;2022-09-29T06:09:12;6.25;;;3.67;;
21862;SDS011;11096;51.338;12.524;2022-09-29T06:11:38;8.60;;;4.50;;
21862;SDS011;11096;51.338;12.524;2022-09-29T06:14:03;7.03;;;4.05;;
21862;SDS011;11096;51.338;12.524;2022-09-29T06:16:29;6.13;;;3.97;;
21862;SDS011;11096;51.338;12.524;2022-09-29T06:18:57;5.43;;;3.40;;
21862;SDS011;11096;51.338;12.524;2022-09-29T06:21:24;6.68;;;4.22;;
21862;SDS011;11096;51.338;12.524;2022-09-29T06:23:52;6.63;;;4.07;;
21862;SDS011;11096;51.338;12.524;2022-09-29T06:26:19;8.80;;;4.75;;
21862;SDS011;11096;51.338;12.524;2022-09-29T06:28:46;8.82;;;4.45;;
21862;SDS011;11096;51.338;12.524;2022-09-29T06:31:12;6.70;;;3.92;;
21862;SDS011;11096;51.338;12.524;2022-09-29T06:33:40;7.32;;;4.25;;
21862;SDS011;11096;51.338;12.524;2022-09-29T06:36:11;9.25;;;4.38;;
21862;SDS011;11096;51.338;12.524;2022-09-29T06:39:00;8.32;;;4.45;;
21862;SDS011;11096;51.338;12.524;2022-09-29T06:41:26;7.68;;;4.35;;
21862;SDS011;11096;51.338;12.524;2022-09-29T06:43:54;9.27;;;4.75;;
21862;SDS011;11096;51.338;12.524;2022-09-29T06:46:19;9.10;;;4.75;;
21862;SDS011;11096;51.338;12.524;2022-09-29T06:48:46;8.15;;;4.50;;
21862;SDS011;11096;51.338;12.524;2022-09-29T06:51:11;11.60;;;5.18;;
21862;SDS011;11096;51.338;12.524;2022-09-29T06:53:38;9.40;;;5.68;;
21862;SDS011;11096;51.338;12.524;2022-09-29T06:56:03;12.13;;;5.13;;
21862;SDS011;11096;51.338;12.524;2022-09-29T06:58:29;13.93;;;5.38;;
21862;SDS011;11096;51.338;12.524;2022-09-29T07:00:54;8.43;;;5.15;;
21862;SDS011;11096;51.338;12.524;2022-09-29T07:03:20;9.35;;;5.35;;
21862;SDS011;11096;51.338;12.524;2022-09-29T07:05:46;8.73;;;5.05;;
21862;SDS011;11096;51.338;12.524;2022-09-29T07:08:11;7.25;;;4.60;;
21862;SDS011;11096;51.338;12.524;2022-09-29T07:10:37;12.55;;;5.63;;
21862;SDS011;11096;51.338;12.524;2022-09-29T07:13:02;9.48;;;4.65;;
21862;SDS011;11096;51.338;12.524;2022-09-29T07:15:28;10.35;;;5.13;;
21862;SDS011;11096;51.338;12.524;2022-09-29T07:17:56;15.85;;;5.85;;
21862;SDS011;11096;51.338;12.524;2022-09-29T07:20:23;11.80;;;5.53;;
21862;SDS011;11096;51.338;12.524;2022-09-29T07:22:50;10.27;;;5.57;;
21862;SDS011;11096;51.338;12.524;2022-09-29T07:25:15;9.23;;;5.07;;
21862;SDS011;11096;51.338;12.524;2022-09-29T07:27:41;8.82;;;4.93;;
21862;SDS011;11096;51.338;12.524;2022-09-29T07:30:06;10.65;;;5.88;;
21862;SDS011;11096;51.338;12.524;2022-09-29T07:32:32;10.20;;;6.13;;
21862;SDS011;11096;51.338;12.524;2022-09-29T07:34:57;7.63;;;4.88;;
21862;SDS011;11096;51.338;12.524;2022-09-29T07:37:24;9.02;;;5.20;;
21862;SDS011;11096;51.338;12.524;2022-09-29T07:39:50;11.25;;;5.78;;
21862;SDS011;11096;51.338;12.524;2022-09-29T07:42:17;13.52;;;6.18;;
21862;SDS011;11096;51.338;12.524;2022-09-29T07:44:43;8.98;;;5.38;;
21862;SDS011;11096;51.338;12.524;2022-09-29T07:47:09;9.30;;;5.38;;
21862;SDS011;11096;51.338;12.524;2022-09-29T07:49:34;9.05;;;5.20;;
21862;SDS011;11096;51.338;12.524;2022-09-29T07:51:59;13.10;;;4.97;;
21862;SDS011;11096;51.338;12.524;2022-09-29T07:54:25;7.30;;;4.72;;
21862;SDS011;11096;51.338;12.524;2022-09-29T07:56:50;7.97;;;5.45;;
21862;SDS011;11096;51.338;12.524;2022-09-29T07:59:16;12.55;;;5.00;;
21862;SDS011;11096;51.338;12.524;2022-09-29T08:01:41;8.00;;;5.35;;
21862;SDS011;11096;51.338;12.524;2022-09-29T08:04:06;10.52;;;5.40;;
21862;SDS011;11096;51.338;12.524;2022-09-29T08:06:32;10.43;;;5.30;;
21862;SDS011;11096;51.338;12.524;2022-09-29T08:08:59;7.00;;;5.20;;
21862;SDS011;11096;51.338;12.524;2022-09-29T08:11:25;8.07;;;5.65;;
21862;SDS011;11096;51.338;12.524;2022-09-29T08:13:52;10.23;;;5.75;;
21862;SDS011;11096;51.338;12.524;2022-09-29T08:16:17;8.20;;;5.15;;
21862;SDS011;11096;51.338;12.524;2022-09-29T08:18:43;7.97;;;5.22;;
21862;SDS011;11096;51.338;12.524;2022-09-29T08:21:09;9.98;;;5.70;;
21862;SDS011;11096;51.338;12.524;2022-09-29T08:23:37;9.02;;;5.35;;
21862;SDS011;11096;51.338;12.524;2022-09-29T08:26:04;8.32;;;4.47;;
21862;SDS011;11096;51.338;12.524;2022-09-29T08:28:38;7.65;;;4.55;;
21862;SDS011;11096;51.338;12.524;2022-09-29T08:31:05;8.98;;;5.28;;
21862;SDS011;11096;51.338;12.524;2022-09-29T08:33:36;8.70;;;5.25;;
21862;SDS011;11096;51.338;12.524;2022-09-29T08:36:02;6.93;;;4.90;;
21862;SDS011;11096;51.338;12.524;2022-09-29T08:38:38;8.77;;;5.28;;
21862;SDS011;11096;51.338;12.524;2022-09-29T08:41:09;7.18;;;4.80;;
21862;SDS011;11096;51.338;12.524;2022-09-29T08:43:47;10.85;;;5.25;;
21862;SDS011;11096;51.338;12.524;2022-09-29T08:46:24;5.55;;;4.07;;
21862;SDS011;11096;51.338;12.524;2022-09-29T08:48:55;5.38;;;4.22;;
21862;SDS011;11096;51.338;12.524;2022-09-29T08:51:29;5.35;;;3.92;;
21862;SDS011;11096;51.338;12.524;2022-09-29T08:54:00;6.65;;;4.38;;
21862;SDS011;11096;51.338;12.524;2022-09-29T08:56:31;5.10;;;4.00;;
21862;SDS011;11096;51.338;12.524;2022-09-29T08:58:57;6.50;;;4.47;;
21862;SDS011;11096;51.338;12.524;2022-09-29T09:01:28;5.88;;;3.95;;
21862;SDS011;11096;51.338;12.524;2022-09-29T09:17:35;6.07;;;4.10;;
21862;SDS011;11096;51.338;12.524;2022-09-29T09:23:25;4.93;;;3.95;;
21862;SDS011;11096;51.338;12.524;2022-09-29T09:26:40;4.32;;;3.38;;
21862;SDS011;11096;51.338;12.524;2022-09-29T09:29:11;5.30;;;3.85;;
21862;SDS011;11096;51.338;12.524;2022-09-29T09:31:43;6.90;;;4.10;;
21862;SDS011;11096;51.338;12.524;2022-09-29T09:34:17;7.07;;;3.70;;
21862;SDS011;11096;51.338;12.524;2022-09-29T09:36:54;5.22;;;3.90;;
21862;SDS011;11096;51.338;12.524;2022-09-29T09:39:31;5.53;;;4.10;;
21862;SDS011;11096;51.338;12.524;2022-09-29T09:42:00;4.93;;;3.63;;
21862;SDS011;11096;51.338;12.524;2022-09-29T09:44:32;3.85;;;3.45;;
21862;SDS011;11096;51.338;12.524;2022-09-29T09:47:17;6.57;;;4.07;;
21862;SDS011;11096;51.338;12.524;2022-09-29T09:50:13;3.75;;;3.10;;
21862;SDS011;11096;51.338;12.524;2022-09-29T09:52:45;6.63;;;3.70;;
21862;SDS011;11096;51.338;12.524;2022-09-29T09:55:23;4.90;;;3.47;;
21862;SDS011;11096;51.338;12.524;2022-09-29T10:00:22;4.75;;;3.13;;
21862;SDS011;11096;51.338;12.524;2022-09-29T10:02:54;4.93;;;3.40;;
21862;SDS011;11096;51.338;12.524;2022-09-29T10:08:35;5.70;;;3.25;;
21862;SDS011;11096;51.338;12.524;2022-09-29T10:11:37;4.88;;;3.20;;
21862;SDS011;11096;51.338;12.524;2022-09-29T10:14:15;6.30;;;3.45;;
21862;SDS011;11096;51.338;12.524;2022-09-29T10:16:50;3.65;;;2.70;;
21862;SDS011;11096;51.338;12.524;2022-09-29T10:19:22;3.63;;;2.40;;
21862;SDS011;11096;51.338;12.524;2022-09-29T10:22:11;3.40;;;2.60;;
21862;SDS011;11096;51.338;12.524;2022-09-29T10:24:38;5.38;;;2.20;;
21862;SDS011;11096;51.338;12.524;2022-09-29T10:27:03;3.58;;;2.22;;
21862;SDS011;11096;51.338;12.524;2022-09-29T10:29:41;3.17;;;2.28;;
21862;SDS011;11096;51.338;12.524;2022-09-29T10:34:48;3.72;;;2.80;;
21862;SDS011;11096;51.338;12.524;2022-09-29T10:37:20;3.30;;;2.60;;
21862;SDS011;11096;51.338;12.524;2022-09-29T10:39:48;3.83;;;2.58;;
21862;SDS011;11096;51.338;12.524;2022-09-29T10:42:14;3.60;;;2.42;;
21862;SDS011;11096;51.338;12.524;2022-09-29T10:44:40;5.38;;;2.63;;
21862;SDS011;11096;51.338;12.524;2022-09-29T10:47:06;4.45;;;2.90;;
21862;SDS011;11096;51.338;12.524;2022-09-29T10:49:39;3.78;;;2.90;;
21862;SDS011;11096;51.338;12.524;2022-09-29T10:54:57;4.32;;;3.25;;
21862;SDS011;11096;51.338;12.524;2022-09-29T10:57:26;4.60;;;2.97;;
21862;SDS011;11096;51.338;12.524;2022-09-29T10:59:54;3.90;;;2.97;;
21862;SDS011;11096;51.338;12.524;2022-09-29T11:04:59;5.03;;;2.78;;
21862;SDS011;11096;51.338;12.524;2022-09-29T11:07:28;4.35;;;3.15;;
21862;SDS011;11096;51.338;12.524;2022-09-29T11:09:55;4.80;;;2.75;;
21862;SDS011;11096;51.338;12.524;2022-09-29T11:14:51;6.32;;;2.90;;
21862;SDS011;11096;51.338;12.524;2022-09-29T11:17:21;3.13;;;2.67;;
21862;SDS011;11096;51.338;12.524;2022-09-29T11:19:52;5.03;;;3.15;;
21862;SDS011;11096;51.338;12.524;2022-09-29T11:45:08;4.57;;;2.80;;
21862;SDS011;11096;51.338;12.524;2022-09-29T11:53:12;2.95;;;2.35;;
21862;SDS011;11096;51.338;12.524;2022-09-29T12:06:51;2.97;;;2.10;;
21862;SDS011;11096;51.338;12.524;2022-09-29T12:12:42;2.50;;;2.13;;
21862;SDS011;11096;51.338;12.524;2022-09-29T12:17:53;2.33;;;1.90;;
21862;SDS011;11096;51.338;12.524;2022-09-29T12:20:24;2.55;;;2.08;;
21862;SDS011;11096;51.338;12.524;2022-09-29T12:23:00;4.20;;;1.83;;
21862;SDS011;11096;51.338;12.524;2022-09-29T12:25:29;2.85;;;2.20;;
21862;SDS011;11096;51.338;12.524;2022-09-29T12:27:59;2.45;;;2.00;;
21862;SDS011;11096;51.338;12.524;2022-09-29T12:30:32;5.00;;;1.80;;
21862;SDS011;11096;51.338;12.524;2022-09-29T12:33:22;2.95;;;2.17;;
21862;SDS011;11096;51.338;12.524;2022-09-29T12:36:08;3.53;;;2.10;;
21862;SDS011;11096;51.338;12.524;2022-09-29T12:41:43;3.03;;;2.13;;
21862;SDS011;11096;51.338;12.524;2022-09-29T12:44:31;2.22;;;1.77;;
21862;SDS011;11096;51.338;12.524;2022-09-29T12:47:14;4.32;;;2.28;;
21862;SDS011;11096;51.338;12.524;2022-09-29T12:50:10;4.85;;;2.00;;
21862;SDS011;11096;51.338;12.524;2022-09-29T12:52:46;4.25;;;2.20;;
21862;SDS011;11096;51.338;12.524;2022-09-29T12:57:44;5.72;;;2.20;;
21862;SDS011;11096;51.338;12.524;2022-09-29T13:00:14;2.13;;;1.75;;
21862;SDS011;11096;51.338;12.524;2022-09-29T13:11:13;2.58;;;1.80;;
21862;SDS011;11096;51.338;12.524;2022-09-29T13:19:21;1.73;;;1.63;;
21862;SDS011;11096;51.338;12.524;2022-09-29T13:28:11;3.08;;;2.20;;
21862;SDS011;11096;51.338;12.524;2022-09-29T13:31:00;6.38;;;2.03;;
21862;SDS011;11096;51.338;12.524;2022-09-29T13:33:29;4.32;;;2.13;;
21862;SDS011;11096;51.338;12.524;2022-09-29T13:35:55;3.70;;;2.13;;
21862;SDS011;11096;51.338;12.524;2022-09-29T13:38:22;2.92;;;2.30;;
21862;SDS011;11096;51.338;12.524;2022-09-29T13:49:22;4.85;;;2.78;;
21862;SDS011;11096;51.338;12.524;2022-09-29T13:51:58;3.75;;;2.97;;
21862;SDS011;11096;51.338;12.524;2022-09-29T13:54:39;3.50;;;2.65;;
21862;SDS011;11096;51.338;12.524;2022-09-29T13:59:36;2.80;;;2.22;;
21862;SDS011;11096;51.338;12.524;2022-09-29T14:05:00;3.88;;;1.75;;
21862;SDS011;11096;51.338;12.524;2022-09-29T14:10:20;2.05;;;1.75;;
21862;SDS011;11096;51.338;12.524;2022-09-29T14:12:50;1.58;;;1.23;;
21862;SDS011;11096;51.338;12.524;2022-09-29T14:15:23;2.33;;;1.77;;
21862;SDS011;11096;51.338;12.524;2022-09-29T14:17:54;2.10;;;1.23;;
21862;SDS011;11096;51.338;12.524;2022-09-29T14:20:28;2.00;;;1.58;;
21862;SDS011;11096;51.338;12.524;2022-09-29T14:23:03;1.65;;;1.33;;
21862;SDS011;11096;51.338;12.524;2022-09-29T14:28:06;3.20;;;1.77;;
21862;SDS011;11096;51.338;12.524;2022-09-29T14:30:38;2.15;;;1.77;;
21862;SDS011;11096;51.338;12.524;2022-09-29T14:35:39;4.45;;;1.63;;
21862;SDS011;11096;51.338;12.524;2022-09-29T14:40:38;1.95;;;1.50;;
21862;SDS011;11096;51.338;12.524;2022-09-29T14:43:10;1.75;;;1.52;;
21862;SDS011;11096;51.338;12.524;2022-09-29T14:45:47;1.42;;;1.33;;
21862;SDS011;11096;51.338;12.524;2022-09-29T14:48:58;2.20;;;1.63;;
21862;SDS011;11096;51.338;12.524;2022-09-29T14:51:54;1.73;;;1.33;;
21862;SDS011;11096;51.338;12.524;2022-09-29T15:02:45;1.85;;;1.40;;
21862;SDS011;11096;51.338;12.524;2022-09-29T15:07:53;1.83;;;1.50;;
21862;SDS011;11096;51.338;12.524;2022-09-29T15:10:23;1.58;;;1.48;;
21862;SDS011;11096;51.338;12.524;2022-09-29T15:12:49;2.28;;;1.83;;
21862;SDS011;11096;51.338;12.524;2022-09-29T15:18:03;1.90;;;1.80;;
21862;SDS011;11096;51.338;12.524;2022-09-29T15:23:40;2.42;;;2.22;;
21862;SDS011;11096;51.338;12.524;2022-09-29T15:26:19;2.45;;;2.05;;
21862;SDS011;11096;51.338;12.524;2022-09-29T15:28:45;3.15;;;2.10;;
21862;SDS011;11096;51.338;12.524;2022-09-29T15:31:15;1.95;;;1.77;;
21862;SDS011;11096;51.338;12.524;2022-09-29T15:33:43;3.40;;;2.63;;
21862;SDS011;11096;51.338;12.524;2022-09-29T15:36:22;2.95;;;2.20;;
21862;SDS011;11096;51.338;12.524;2022-09-29T15:38:52;4.28;;;2.47;;
21862;SDS011;11096;51.338;12.524;2022-09-29T15:41:26;3.22;;;2.80;;
21862;SDS011;11096;51.338;12.524;2022-09-29T15:43:59;6.82;;;3.05;;
21862;SDS011;11096;51.338;12.524;2022-09-29T15:46:37;5.20;;;3.63;;
21862;SDS011;11096;51.338;12.524;2022-09-29T15:51:37;5.22;;;3.08;;
21862;SDS011;11096;51.338;12.524;2022-09-29T15:54:04;4.18;;;3.10;;
21862;SDS011;11096;51.338;12.524;2022-09-29T15:56:33;3.00;;;2.70;;
21862;SDS011;11096;51.338;12.524;2022-09-29T15:59:18;2.95;;;2.33;;
21862;SDS011;11096;51.338;12.524;2022-09-29T16:01:44;2.30;;;2.05;;
21862;SDS011;11096;51.338;12.524;2022-09-29T16:04:09;2.40;;;2.00;;
21862;SDS011;11096;51.338;12.524;2022-09-29T16:06:35;3.67;;;2.10;;
21862;SDS011;11096;51.338;12.524;2022-09-29T16:09:03;2.58;;;1.92;;
21862;SDS011;11096;51.338;12.524;2022-09-29T16:14:31;5.30;;;3.65;;
21862;SDS011;11096;51.338;12.524;2022-09-29T16:16:52;6.13;;;4.07;;
21862;SDS011;11096;51.338;12.524;2022-09-29T16:21:55;4.88;;;4.00;;
21862;SDS011;11096;51.338;12.524;2022-09-29T16:24:26;4.85;;;4.25;;
21862;SDS011;11096;51.338;12.524;2022-09-29T16:26:56;8.23;;;5.65;;
21862;SDS011;11096;51.338;12.524;2022-09-29T16:31:51;8.45;;;6.18;;
21862;SDS011;11096;51.338;12.524;2022-09-29T16:36:56;7.90;;;5.05;;
21862;SDS011;11096;51.338;12.524;2022-09-29T16:39:40;7.25;;;4.88;;
21862;SDS011;11096;51.338;12.524;2022-09-29T16:42:23;7.80;;;5.18;;
21862;SDS011;11096;51.338;12.524;2022-09-29T16:44:51;6.47;;;4.90;;
21862;SDS011;11096;51.338;12.524;2022-09-29T16:47:22;6.07;;;4.68;;
21862;SDS011;11096;51.338;12.524;2022-09-29T16:49:59;6.22;;;4.80;;
21862;SDS011;11096;51.338;12.524;2022-09-29T16:52:49;6.03;;;4.30;;
21862;SDS011;11096;51.338;12.524;2022-09-29T16:55:18;6.93;;;4.63;;
21862;SDS011;11096;51.338;12.524;2022-09-29T16:57:55;6.55;;;4.78;;
21862;SDS011;11096;51.338;12.524;2022-09-29T17:00:22;8.80;;;4.85;;
21862;SDS011;11096;51.338;12.524;2022-09-29T17:02:52;6.78;;;4.95;;
21862;SDS011;11096;51.338;12.524;2022-09-29T17:05:19;6.72;;;5.22;;
21862;SDS011;11096;51.338;12.524;2022-09-29T17:07:45;7.43;;;4.63;;
21862;SDS011;11096;51.338;12.524;2022-09-29T17:10:18;4.55;;;4.13;;
21862;SDS011;11096;51.338;12.524;2022-09-29T17:12:45;5.63;;;4.40;;
21862;SDS011;11096;51.338;12.524;2022-09-29T17:15:14;5.78;;;4.90;;
21862;SDS011;11096;51.338;12.524;2022-09-29T17:17:41;6.53;;;4.78;;
21862;SDS011;11096;51.338;12.524;2022-09-29T17:20:12;6.68;;;5.30;;
21862;SDS011;11096;51.338;12.524;2022-09-29T17:22:39;7.32;;;5.38;;
21862;SDS011;11096;51.338;12.524;2022-09-29T17:25:05;8.00;;;5.63;;
21862;SDS011;11096;51.338;12.524;2022-09-29T17:27:31;5.90;;;5.18;;
21862;SDS011;11096;51.338;12.524;2022-09-29T17:30:17;5.85;;;4.28;;
21862;SDS011;11096;51.338;12.524;2022-09-29T17:32:45;6.03;;;3.80;;
21862;SDS011;11096;51.338;12.524;2022-09-29T17:35:15;4.40;;;3.20;;
21862;SDS011;11096;51.338;12.524;2022-09-29T17:37:42;4.38;;;3.47;;
21862;SDS011;11096;51.338;12.524;2022-09-29T17:40:12;4.75;;;3.63;;
21862;SDS011;11096;51.338;12.524;2022-09-29T17:42:53;8.38;;;4.90;;
21862;SDS011;11096;51.338;12.524;2022-09-29T17:45:19;7.50;;;4.47;;
21862;SDS011;11096;51.338;12.524;2022-09-29T17:47:45;7.82;;;4.07;;
21862;SDS011;11096;51.338;12.524;2022-09-29T17:50:34;4.35;;;3.53;;
21862;SDS011;11096;51.338;12.524;2022-09-29T17:53:00;5.05;;;3.40;;
21862;SDS011;11096;51.338;12.524;2022-09-29T17:55:28;4.65;;;3.58;;
21862;SDS011;11096;51.338;12.524;2022-09-29T17:57:54;5.80;;;3.60;;
21862;SDS011;11096;51.338;12.524;2022-09-29T18:00:21;5.30;;;3.63;;
21862;SDS011;11096;51.338;12.524;2022-09-29T18:02:56;6.00;;;3.42;;
21862;SDS011;11096;51.338;12.524;2022-09-29T18:05:23;4.25;;;3.55;;
21862;SDS011;11096;51.338;12.524;2022-09-29T18:07:53;5.68;;;3.60;;